createdAt,value
2023-04-24T00:00:35.255Z,7.30
2023-04-24T00:03:04.128Z,9.20
2023-04-24T00:05:32.382Z,7.10
2023-04-24T00:08:00.356Z,7.83
2023-04-24T00:10:28.439Z,7.17
2023-04-24T00:12:56.229Z,7.43
2023-04-24T00:15:25.878Z,6.87
2023-04-24T00:17:54.383Z,7.73
2023-04-24T00:20:23.688Z,6.70
2023-04-24T00:22:51.900Z,9.00
2023-04-24T00:25:20.130Z,11.73
2023-04-24T00:27:48.188Z,9.40
2023-04-24T00:30:16.385Z,9.47
2023-04-24T00:32:45.862Z,7.90
2023-04-24T00:35:13.618Z,8.00
2023-04-24T00:37:41.542Z,7.53
2023-04-24T00:40:10.863Z,7.67
2023-04-24T00:42:38.800Z,7.20
2023-04-24T00:45:08.236Z,8.03
2023-04-24T00:47:36.855Z,7.10
2023-04-24T00:50:07.479Z,8.43
2023-04-24T00:52:36.349Z,8.97
2023-04-24T00:55:04.372Z,7.87
2023-04-24T00:57:32.739Z,11.50
2023-04-24T01:00:00.760Z,8.20
2023-04-24T01:02:29.001Z,7.70
2023-04-24T01:04:57.574Z,10.27
2023-04-24T01:07:27.158Z,8.13
2023-04-24T01:09:55.249Z,7.70
2023-04-24T01:12:23.029Z,8.20
2023-04-24T01:14:51.390Z,8.80
2023-04-24T01:17:19.297Z,7.93
2023-04-24T01:19:49.225Z,9.60
2023-04-24T01:22:18.673Z,9.03
2023-04-24T01:24:46.666Z,9.10
2023-04-24T01:27:15.011Z,8.43
2023-04-24T01:29:43.239Z,8.17
2023-04-24T01:32:11.672Z,8.43
2023-04-24T01:34:40.291Z,7.87
2023-04-24T01:37:08.525Z,8.53
2023-04-24T01:39:37.719Z,7.80
2023-04-24T01:42:06.555Z,6.93
2023-04-24T01:44:35.516Z,10.73
2023-04-24T01:47:05.690Z,6.40
2023-04-24T01:49:34.113Z,6.90
2023-04-24T01:52:02.218Z,7.60
2023-04-24T01:54:32.401Z,6.70
2023-04-24T01:57:03.071Z,7.33
2023-04-24T01:59:32.262Z,6.00
2023-04-24T02:02:00.318Z,5.97
2023-04-24T02:04:28.499Z,10.43
2023-04-24T02:06:56.696Z,7.77
2023-04-24T02:09:26.220Z,11.20
2023-04-24T02:11:54.068Z,5.70
2023-04-24T02:14:23.246Z,4.93
2023-04-24T02:16:51.265Z,5.70
2023-04-24T02:19:19.523Z,4.87
2023-04-24T02:21:47.556Z,6.40
2023-04-24T02:24:15.532Z,4.50
2023-04-24T02:26:43.436Z,8.60
2023-04-24T02:29:11.669Z,6.13
2023-04-24T02:31:40.920Z,4.30
2023-04-24T02:34:08.836Z,5.20
2023-04-24T02:36:36.733Z,6.90
2023-04-24T02:39:05.054Z,4.70
2023-04-24T02:41:34.209Z,4.70
2023-04-24T02:44:02.235Z,4.63
2023-04-24T02:46:30.260Z,5.70
2023-04-24T02:48:59.539Z,4.97
2023-04-24T02:51:27.906Z,4.27
2023-04-24T02:53:56.029Z,5.37
2023-04-24T02:56:24.164Z,5.80
2023-04-24T02:58:52.117Z,9.03
2023-04-24T03:01:20.642Z,6.00
2023-04-24T03:03:48.539Z,4.57
2023-04-24T03:06:17.885Z,4.57
2023-04-24T03:08:45.685Z,3.57
2023-04-24T03:11:13.415Z,6.87
2023-04-24T03:13:43.414Z,3.83
2023-04-24T03:16:11.534Z,4.60
2023-04-24T03:18:39.468Z,4.80
2023-04-24T03:21:08.900Z,5.93
2023-04-24T03:23:39.295Z,6.53
2023-04-24T03:26:07.263Z,5.07
2023-04-24T03:28:37.600Z,3.90
2023-04-24T03:31:06.237Z,4.50
2023-04-24T03:33:37.800Z,5.30
2023-04-24T03:36:06.431Z,3.93
2023-04-24T03:38:42.229Z,3.70
2023-04-24T03:41:28.820Z,3.47
2023-04-24T03:44:03.843Z,4.03
2023-04-24T03:46:32.615Z,3.40
2023-04-24T03:49:04.254Z,3.43
2023-04-24T03:51:36.570Z,3.13
2023-04-24T03:54:19.590Z,2.90
2023-04-24T03:56:48.088Z,6.83
2023-04-24T03:59:16.366Z,2.40
2023-04-24T04:01:48.735Z,2.93
2023-04-24T04:04:18.436Z,5.90
2023-04-24T04:06:47.900Z,4.70
2023-04-24T04:09:16.329Z,3.47
2023-04-24T04:11:45.480Z,2.80
2023-04-24T04:14:13.857Z,5.70
2023-04-24T04:16:45.552Z,4.63
2023-04-24T04:19:13.989Z,13.93
2023-04-24T04:21:41.785Z,2.60
2023-04-24T04:24:16.543Z,4.30
2023-04-24T04:26:48.377Z,3.50
2023-04-24T04:29:45.831Z,5.47
2023-04-24T04:32:16.364Z,3.40
2023-04-24T04:34:46.475Z,4.20
2023-04-24T04:37:15.429Z,5.50
2023-04-24T04:40:11.930Z,3.83
2023-04-24T04:42:48.985Z,2.73
2023-04-24T04:45:18.058Z,2.97
2023-04-24T04:48:08.273Z,3.10
2023-04-24T04:50:36.645Z,2.70
2023-04-24T04:53:08.537Z,2.37
2023-04-24T04:55:39.802Z,2.57
2023-04-24T04:58:17.799Z,3.03
2023-04-24T05:00:47.305Z,7.60
2023-04-24T05:03:24.714Z,3.10
2023-04-24T05:05:59.510Z,3.23
2023-04-24T05:08:28.107Z,2.33
2023-04-24T05:10:57.328Z,2.50
2023-04-24T05:13:39.344Z,2.93
2023-04-24T05:16:19.163Z,2.80
2023-04-24T05:18:47.561Z,3.33
2023-04-24T05:21:19.105Z,3.37
2023-04-24T05:23:51.064Z,3.00
2023-04-24T05:26:28.113Z,6.63
2023-04-24T05:28:59.398Z,3.27
2023-04-24T05:31:27.361Z,3.80
2023-04-24T05:33:56.041Z,2.67
2023-04-24T05:36:24.285Z,5.47
2023-04-24T05:38:52.022Z,9.13
2023-04-24T05:41:19.818Z,2.80
2023-04-24T05:43:47.572Z,2.67
2023-04-24T05:46:16.637Z,6.17
2023-04-24T05:54:48.608Z,2.50
2023-04-24T05:57:23.471Z,2.77
2023-04-24T05:59:58.413Z,3.30
2023-04-24T06:02:33.767Z,3.63
2023-04-24T06:05:02.934Z,4.77
2023-04-24T06:07:31.199Z,4.83
2023-04-24T06:09:59.040Z,3.40
2023-04-24T06:12:28.371Z,3.63
2023-04-24T06:15:01.284Z,2.70
2023-04-24T06:18:06.088Z,2.40
2023-04-24T06:20:34.689Z,2.70
2023-04-24T06:23:03.513Z,3.10
2023-04-24T06:25:31.556Z,2.30
2023-04-24T06:27:59.423Z,2.80
2023-04-24T06:30:28.205Z,2.27
2023-04-24T06:33:02.989Z,4.67
2023-04-24T06:35:35.655Z,3.50
2023-04-24T06:38:03.638Z,4.13
2023-04-24T06:40:33.359Z,2.60
2023-04-24T06:43:04.048Z,2.53
2023-04-24T06:45:34.022Z,2.83
2023-04-24T06:48:02.535Z,2.93
2023-04-24T06:50:46.562Z,4.30
2023-04-24T06:53:15.430Z,2.77
2023-04-24T06:55:44.211Z,2.30
2023-04-24T06:58:12.186Z,2.63
2023-04-24T07:00:40.183Z,4.00
2023-04-24T07:03:08.503Z,3.03
2023-04-24T07:05:39.705Z,4.10
2023-04-24T07:08:09.735Z,3.20
2023-04-24T07:10:38.162Z,2.90
2023-04-24T07:13:08.042Z,5.40
2023-04-24T07:15:35.898Z,3.50
2023-04-24T07:18:05.886Z,2.70
2023-04-24T07:20:35.446Z,2.67
2023-04-24T07:23:05.477Z,5.63
2023-04-24T07:29:52.699Z,6.53
2023-04-24T07:32:20.403Z,6.80
2023-04-24T07:35:26.627Z,7.97
2023-04-24T07:38:03.535Z,3.37
2023-04-24T07:41:11.978Z,7.70
2023-04-24T07:50:21.777Z,3.80
2023-04-24T07:52:49.862Z,4.20
2023-04-24T07:55:18.034Z,4.97
2023-04-24T07:57:47.616Z,4.23
2023-04-24T08:00:16.223Z,7.87
2023-04-24T08:02:44.230Z,5.17
2023-04-24T08:05:12.492Z,14.73
2023-04-24T08:07:40.486Z,3.87
2023-04-24T08:10:09.665Z,4.93
2023-04-24T08:12:37.608Z,5.67
2023-04-24T08:15:07.959Z,12.50
2023-04-24T08:17:36.163Z,4.40
2023-04-24T08:20:04.986Z,4.93
2023-04-24T08:22:32.837Z,6.50
2023-04-24T08:25:02.591Z,4.80
2023-04-24T08:27:30.325Z,5.10
2023-04-24T08:29:59.473Z,5.00
2023-04-24T08:32:30.035Z,6.13
2023-04-24T08:34:58.461Z,5.63
2023-04-24T08:37:27.665Z,5.50
2023-04-24T08:39:55.759Z,4.60
2023-04-24T08:42:23.851Z,5.17
2023-04-24T08:44:52.555Z,6.03
2023-04-24T08:47:22.455Z,4.70
2023-04-24T08:49:52.463Z,4.40
2023-04-24T08:52:21.203Z,5.13
2023-04-24T08:54:49.367Z,4.67
2023-04-24T08:57:17.450Z,8.23
2023-04-24T08:59:45.507Z,6.80
2023-04-24T09:05:47.505Z,5.97
2023-04-24T09:09:08.636Z,6.93
2023-04-24T09:11:36.458Z,6.03
2023-04-24T09:14:04.383Z,8.10
2023-04-24T09:16:35.937Z,8.60
2023-04-24T09:19:05.137Z,5.60
2023-04-24T09:21:35.792Z,5.30
2023-04-24T09:24:05.654Z,9.00
2023-04-24T09:26:34.427Z,5.63
2023-04-24T09:29:02.826Z,5.00
2023-04-24T09:31:31.690Z,5.93
2023-04-24T09:34:03.295Z,5.00
2023-04-24T09:36:37.964Z,5.77
2023-04-24T09:42:48.806Z,4.90
2023-04-24T09:45:16.541Z,6.80
2023-04-24T09:47:44.624Z,5.97
2023-04-24T09:50:14.908Z,6.10
2023-04-24T09:52:46.162Z,6.80
2023-04-24T09:55:19.945Z,7.03
2023-04-24T09:57:52.162Z,6.40
2023-04-24T10:00:21.728Z,7.03
2023-04-24T10:02:53.283Z,6.37
2023-04-24T10:05:21.877Z,5.90
2023-04-24T10:07:53.992Z,6.10
2023-04-24T10:10:22.307Z,5.47
2023-04-24T10:12:50.474Z,9.77
2023-04-24T10:15:22.262Z,6.37
2023-04-24T10:17:53.328Z,8.27
2023-04-24T10:20:23.336Z,8.10
2023-04-24T10:22:54.051Z,7.93
2023-04-24T10:25:23.349Z,9.83
2023-04-24T10:27:52.780Z,10.67
2023-04-24T10:30:21.960Z,8.80
2023-04-24T10:32:49.840Z,8.07
2023-04-24T10:35:20.559Z,10.90
2023-04-24T10:37:56.261Z,9.80
2023-04-24T10:40:28.785Z,15.90
2023-04-24T10:42:59.063Z,12.90
2023-04-24T10:45:28.198Z,9.00
2023-04-24T10:48:04.368Z,9.93
2023-04-24T10:50:45.277Z,9.30
2023-04-24T10:53:19.256Z,14.53
2023-04-24T10:55:49.550Z,10.73
2023-04-24T10:58:18.834Z,11.60
2023-04-24T11:00:58.297Z,14.07
2023-04-24T11:03:28.805Z,12.80
2023-04-24T11:06:02.006Z,11.87
2023-04-24T11:08:39.558Z,12.47
2023-04-24T11:11:12.380Z,10.60
2023-04-24T11:14:07.638Z,14.63
2023-04-24T11:16:48.731Z,10.90
2023-04-24T11:19:27.379Z,11.50
2023-04-24T11:22:02.188Z,11.10
2023-04-24T11:24:33.422Z,14.60
2023-04-24T11:27:08.131Z,11.83
2023-04-24T11:29:45.021Z,11.23
2023-04-24T11:32:26.909Z,13.30
2023-04-24T11:34:55.854Z,9.47
2023-04-24T11:37:24.714Z,10.50
2023-04-24T11:39:55.299Z,10.43
2023-04-24T11:42:25.066Z,10.17
2023-04-24T11:44:57.752Z,11.27
2023-04-24T11:47:35.341Z,11.07
2023-04-24T11:50:04.752Z,10.10
2023-04-24T11:52:33.211Z,12.43
2023-04-24T11:55:02.795Z,10.67
2023-04-24T11:57:34.703Z,9.20
2023-04-24T12:00:04.494Z,8.40
2023-04-24T12:02:40.281Z,12.00
2023-04-24T12:05:09.734Z,10.47
2023-04-24T12:07:44.132Z,9.10
2023-04-24T12:10:13.460Z,10.40
2023-04-24T12:12:41.292Z,7.87
2023-04-24T12:15:10.430Z,7.50
2023-04-24T12:17:38.624Z,9.70
2023-04-24T12:20:08.988Z,7.33
2023-04-24T12:22:47.643Z,7.57
2023-04-24T12:25:18.551Z,9.00
2023-04-24T12:27:46.936Z,7.90
2023-04-24T12:30:16.796Z,7.37
2023-04-24T12:32:45.447Z,11.80
2023-04-24T12:35:13.714Z,10.80
2023-04-24T12:37:47.203Z,7.17
2023-04-24T12:40:17.549Z,9.20
2023-04-24T12:42:47.741Z,7.60
2023-04-24T12:45:16.458Z,9.90
2023-04-24T12:47:45.649Z,12.37
2023-04-24T12:50:14.689Z,7.33
2023-04-24T12:52:43.470Z,10.50
2023-04-24T12:55:13.074Z,8.20
2023-04-24T12:57:43.185Z,10.10
2023-04-24T13:00:12.198Z,7.17
2023-04-24T13:02:39.907Z,8.90
2023-04-24T13:05:08.480Z,7.40
2023-04-24T13:07:36.186Z,13.00
2023-04-24T13:10:04.375Z,10.00
2023-04-24T13:12:32.315Z,12.13
2023-04-24T13:15:01.401Z,7.90
2023-04-24T13:17:29.163Z,10.43
2023-04-24T13:19:57.668Z,8.27
2023-04-24T13:22:25.920Z,9.27
2023-04-24T13:24:53.756Z,8.30
2023-04-24T13:27:21.521Z,6.30
2023-04-24T13:29:49.420Z,7.53
2023-04-24T13:32:19.070Z,9.50
2023-04-24T13:34:48.279Z,6.73
2023-04-24T13:37:16.039Z,13.20
2023-04-24T13:39:43.876Z,8.70
2023-04-24T13:42:11.893Z,7.23
2023-04-24T13:44:39.832Z,8.20
2023-04-24T13:47:07.502Z,7.50
2023-04-24T13:49:36.701Z,6.67
2023-04-24T13:52:04.484Z,6.20
2023-04-24T13:54:32.279Z,11.70
2023-04-24T13:57:01.550Z,5.90
2023-04-24T13:59:29.736Z,6.63
2023-04-24T14:01:57.728Z,6.87
2023-04-24T14:04:25.885Z,15.27
2023-04-24T14:06:55.247Z,6.00
2023-04-24T14:09:22.956Z,5.63
2023-04-24T14:11:51.011Z,5.97
2023-04-24T14:14:19.114Z,6.00
2023-04-24T14:16:46.709Z,6.93
2023-04-24T14:19:14.500Z,13.43
2023-04-24T14:21:42.119Z,6.70
2023-04-24T14:24:11.586Z,6.80
2023-04-24T14:26:39.769Z,6.73
2023-04-24T14:29:14.865Z,6.13
2023-04-24T14:31:43.847Z,5.67
2023-04-24T14:34:11.842Z,5.50
2023-04-24T14:36:39.845Z,5.03
2023-04-24T14:39:08.417Z,6.67
2023-04-24T14:41:38.497Z,6.57
2023-04-24T14:44:06.717Z,7.10
2023-04-24T14:46:35.011Z,5.50
2023-04-24T14:49:03.056Z,7.17
2023-04-24T14:51:31.467Z,7.20
2023-04-24T14:54:00.562Z,6.90
2023-04-24T14:56:28.481Z,8.07
2023-04-24T14:58:57.733Z,13.23
2023-04-24T15:01:25.956Z,8.87
2023-04-24T15:03:54.582Z,9.20
2023-04-24T15:06:23.035Z,10.37
2023-04-24T15:08:51.275Z,12.00
2023-04-24T15:11:19.491Z,11.23
2023-04-24T15:13:47.618Z,10.50
2023-04-24T15:16:17.413Z,10.63
2023-04-24T15:18:45.647Z,9.53
2023-04-24T15:21:14.156Z,8.37
2023-04-24T15:23:42.154Z,8.90
2023-04-24T15:26:09.998Z,7.67
2023-04-24T15:28:37.760Z,7.50
2023-04-24T15:31:05.602Z,5.80
2023-04-24T15:33:35.272Z,4.27
2023-04-24T15:36:03.336Z,3.33
2023-04-24T15:38:30.989Z,3.50
2023-04-24T15:40:58.715Z,3.20
2023-04-24T15:43:26.444Z,3.17
2023-04-24T15:45:54.549Z,3.00
2023-04-24T15:48:22.500Z,3.77
2023-04-24T15:50:51.898Z,3.03
2023-04-24T15:53:22.442Z,3.60
2023-04-24T15:55:50.458Z,7.10
2023-04-24T15:58:18.632Z,5.90
2023-04-24T16:00:46.366Z,7.30
2023-04-24T16:03:14.475Z,9.90
2023-04-24T16:05:43.186Z,9.10
2023-04-24T16:08:14.270Z,9.07
2023-04-24T16:10:42.154Z,9.67
2023-04-24T16:13:10.011Z,9.90
2023-04-24T16:15:38.070Z,9.57
2023-04-24T16:18:06.318Z,10.83
2023-04-24T16:20:34.532Z,9.50
2023-04-24T16:23:02.328Z,7.90
2023-04-24T16:25:31.626Z,11.50
2023-04-24T16:27:59.337Z,10.13
2023-04-24T16:30:27.187Z,10.03
2023-04-24T16:32:54.999Z,8.43
2023-04-24T16:35:22.969Z,10.47
2023-04-24T16:37:50.784Z,7.50
2023-04-24T16:40:19.604Z,8.33
2023-04-24T16:42:48.912Z,5.10
2023-04-24T16:45:17.013Z,6.27
2023-04-24T16:47:44.730Z,6.50
2023-04-24T16:50:12.878Z,5.30
2023-04-24T16:52:40.776Z,5.73
2023-04-24T16:55:09.801Z,4.23
2023-04-24T16:57:37.692Z,6.50
2023-04-24T17:00:08.814Z,10.00
2023-04-24T17:02:36.745Z,10.03
2023-04-24T17:05:04.860Z,7.57
2023-04-24T17:07:32.691Z,10.93
2023-04-24T17:10:00.443Z,8.70
2023-04-24T17:12:28.057Z,12.13
2023-04-24T17:14:55.884Z,6.93
2023-04-24T17:17:25.515Z,7.97
2023-04-24T17:19:53.331Z,6.13
2023-04-24T17:22:21.362Z,8.20
2023-04-24T17:24:49.046Z,6.73
2023-04-24T17:27:17.021Z,8.03
2023-04-24T17:29:44.704Z,8.53
2023-04-24T17:32:12.519Z,9.93
2023-04-24T17:34:41.658Z,9.60
2023-04-24T17:37:09.815Z,8.70
2023-04-24T17:39:37.528Z,11.17
2023-04-24T17:42:05.429Z,11.13
2023-04-24T17:44:33.308Z,10.00
2023-04-24T17:47:01.182Z,9.20
2023-04-24T17:49:28.981Z,7.10
2023-04-24T17:51:58.046Z,6.40
2023-04-24T17:54:25.979Z,9.53
2023-04-24T17:56:53.986Z,8.83
2023-04-24T17:59:23.949Z,12.17
2023-04-24T18:01:53.095Z,9.80
2023-04-24T18:04:21.543Z,12.43
2023-04-24T18:06:49.448Z,9.67
2023-04-24T18:09:21.091Z,7.83
2023-04-24T18:11:50.325Z,9.43
2023-04-24T18:14:18.586Z,6.80
2023-04-24T18:16:46.632Z,12.00
2023-04-24T18:19:14.644Z,10.87
2023-04-24T18:21:42.584Z,9.53
2023-04-24T18:24:10.858Z,12.97
2023-04-24T18:26:40.339Z,12.30
2023-04-24T18:29:08.612Z,8.23
2023-04-24T18:31:36.503Z,17.07
2023-04-24T18:34:04.681Z,20.13
2023-04-24T18:36:32.875Z,17.00
2023-04-24T18:39:01.013Z,22.53
2023-04-24T18:41:28.791Z,10.80
2023-04-24T18:43:59.203Z,11.17
2023-04-24T18:46:27.388Z,12.23
2023-04-24T18:48:55.476Z,12.70
2023-04-24T18:51:23.644Z,12.60
2023-04-24T18:53:51.502Z,9.67
2023-04-24T18:56:19.431Z,15.47
2023-04-24T18:58:47.710Z,7.60
2023-04-24T19:01:17.179Z,4.83
2023-04-24T19:03:46.026Z,7.33
2023-04-24T19:06:14.029Z,8.57
2023-04-24T19:08:43.360Z,6.10
2023-04-24T19:11:11.541Z,6.30
2023-04-24T19:13:39.748Z,15.93
2023-04-24T19:16:07.830Z,5.00
2023-04-24T19:18:37.172Z,10.83
2023-04-24T19:21:05.209Z,8.03
2023-04-24T19:23:39.574Z,5.63
2023-04-24T19:26:07.623Z,5.90
2023-04-24T19:28:37.823Z,4.83
2023-04-24T19:31:07.006Z,8.63
2023-04-24T19:33:34.954Z,4.73
2023-04-24T19:36:04.345Z,15.03
2023-04-24T19:38:32.132Z,4.03
2023-04-24T19:41:00.245Z,3.40
2023-04-24T19:43:27.961Z,3.30
2023-04-24T19:45:57.647Z,7.30
2023-04-24T19:48:25.481Z,3.07
2023-04-24T19:50:54.166Z,5.07
2023-04-24T19:53:23.316Z,7.03
2023-04-24T19:55:51.663Z,5.50
2023-04-24T19:58:19.479Z,6.67
2023-04-24T20:00:47.268Z,10.33
2023-04-24T20:03:25.631Z,14.80
2023-04-24T20:06:00.388Z,7.90
2023-04-24T20:08:29.651Z,6.00
2023-04-24T20:10:58.712Z,10.57
2023-04-24T20:13:27.599Z,9.60
2023-04-24T20:15:55.595Z,9.37
2023-04-24T20:18:23.512Z,8.30
2023-04-24T20:20:54.253Z,12.57
2023-04-24T20:23:22.155Z,8.90
2023-04-24T20:25:57.762Z,5.50
2023-04-24T20:28:26.674Z,10.27
2023-04-24T20:30:54.496Z,8.40
2023-04-24T20:33:23.551Z,6.07
2023-04-24T20:35:52.387Z,13.97
2023-04-24T20:38:22.412Z,5.47
2023-04-24T20:40:58.122Z,8.60
2023-04-24T20:43:28.885Z,6.47
2023-04-24T20:45:57.966Z,8.20
2023-04-24T20:48:26.257Z,11.53
2023-04-24T20:50:54.360Z,8.37
2023-04-24T20:53:22.244Z,10.93
2023-04-24T20:55:50.205Z,6.60
2023-04-24T20:58:20.995Z,8.80
2023-04-24T21:00:49.174Z,9.77
2023-04-24T21:03:17.416Z,10.10
2023-04-24T21:05:45.300Z,7.07
2023-04-24T21:08:13.541Z,8.27
2023-04-24T21:10:41.486Z,8.80
2023-04-24T21:13:09.327Z,6.23
2023-04-24T21:15:38.548Z,8.73
2023-04-24T21:18:06.910Z,10.20
2023-04-24T21:20:34.830Z,9.60
2023-04-24T21:23:02.644Z,7.40
2023-04-24T21:25:31.206Z,5.07
2023-04-24T21:27:59.496Z,11.93
2023-04-24T21:30:27.432Z,6.70
2023-04-24T21:32:56.985Z,10.60
2023-04-24T21:35:24.939Z,12.73
2023-04-24T21:37:52.793Z,9.73
2023-04-24T21:40:20.712Z,8.57
2023-04-24T21:42:48.529Z,12.30
2023-04-24T21:45:16.457Z,8.17
2023-04-24T21:47:44.475Z,8.00
2023-04-24T21:50:14.125Z,6.60
2023-04-24T21:52:41.941Z,7.73
2023-04-24T21:55:10.281Z,7.10
2023-04-24T21:57:38.195Z,8.93
2023-04-24T22:00:08.379Z,8.27
2023-04-24T22:02:36.477Z,6.60
2023-04-24T22:05:05.443Z,7.17
2023-04-24T22:07:36.577Z,8.10
2023-04-24T22:10:05.626Z,5.60
2023-04-24T22:12:33.400Z,9.43
2023-04-24T22:15:01.440Z,8.70
2023-04-24T22:17:29.184Z,7.50
2023-04-24T22:19:57.306Z,8.90
2023-04-24T22:22:25.130Z,10.50
2023-04-24T22:24:54.333Z,7.00
2023-04-24T22:27:22.197Z,7.47
2023-04-24T22:29:49.998Z,10.00
2023-04-24T22:32:17.774Z,8.43
2023-04-24T22:34:45.870Z,9.53
2023-04-24T22:37:13.975Z,10.93
2023-04-24T22:39:42.256Z,8.90
2023-04-24T22:42:11.696Z,7.50
2023-04-24T22:44:39.598Z,7.47
2023-04-24T22:47:08.583Z,8.13
2023-04-24T22:49:36.440Z,11.20
2023-04-24T22:52:05.274Z,6.40
2023-04-24T22:54:34.845Z,11.37
2023-04-24T22:57:03.677Z,12.00
2023-04-24T22:59:33.256Z,10.30
2023-04-24T23:02:01.777Z,8.67
2023-04-24T23:04:30.327Z,10.90
2023-04-24T23:06:58.516Z,13.00
2023-04-24T23:09:26.741Z,10.10
2023-04-24T23:11:55.272Z,16.43
2023-04-24T23:14:25.571Z,12.17
2023-04-24T23:16:55.136Z,10.03
2023-04-24T23:19:23.562Z,9.20
2023-04-24T23:21:52.027Z,10.57
2023-04-24T23:24:21.169Z,6.37
2023-04-24T23:26:49.987Z,6.53
2023-04-24T23:29:18.596Z,7.50
2023-04-24T23:31:46.873Z,9.87
2023-04-24T23:34:18.440Z,8.33
2023-04-24T23:40:09.943Z,13.33
2023-04-24T23:42:40.275Z,10.27
2023-04-24T23:45:11.081Z,9.10
2023-04-24T23:47:39.595Z,9.00
2023-04-24T23:50:09.710Z,7.67
2023-04-24T23:52:37.824Z,10.13
2023-04-24T23:55:06.506Z,8.60
2023-04-24T23:57:34.395Z,6.83
